Pagina principale
METAR-TAF:

METAR-TAF

Aeroporti :

Jim Kelly Field

Lexington, Nebraska, Stati Uniti

latitudine: 40-47-28N, longitudine: 099-46-38W, altezza: 736 m

Osservazione

Il bollettino è stato emesso 37 minuti fa, alle 22:35 UTC
Vento 3 kt da sud/sud-ovest
Temperature 30°C
Umidità 43%
Pressione 1019 hPa
Visibilità: 16.1 km
Cielo sereno

METAR: KLXN 232235Z AUTO 20003KT 10SM CLR 30/16 A3010 RMK AO2 T02960157

Ora: 18:12 (23:12 UTC)


TAF: mancante

Osservazioni e previsioni meteorologiche di più di 4000 aeroporti (messaggi METAR e TAF).

Le stazioni disponibili sono rappresentate dai dischi gialli e rossi sulla carta.

Puntare il mouse per vedere il nome della stazione.

Clicca sopra per visualizzare le osservazioni e previsioni meteorologiche.

Per cambiare la mappa : fare clic sui pulsanti verdi con una croce nera per ingrandire, il pulsante verde con un trattino per diminuire, o sulla freccia verde per le mappe adiacenti.


METAR-TAF: